Flight Track Log - Related Links

Times and Time Zones

All times are in EDT time to prevent confusion due to time zone crossing. See the N1944E flight status page for this flight to view local times or setup timezone preferences in your user account.

Time Position Orientation Groundspeed Altitude Reporting Facility
EDT Latitude Longitude Course Direction KTS MPH feet Rate Location/Type
Thu 03:58:10 PM 43.5819 -110.7503 216° Southwest 113 130 7,100  Level Salt Lake Center
Thu 03:59:12 PM 43.5503 -110.7750 210° Southwest 127 146 7,900 726 Climbing Salt Lake Center
Thu 04:00:14 PM 43.5153 -110.7989 206° Southwest 133 153 8,600 823 Climbing Salt Lake Center
Thu 04:01:16 PM 43.4719 -110.8267 205° Southwest 138 159 9,600 871 Climbing Salt Lake Center
Thu 04:02:00 PM 43.2831 -110.9335 200° South  Level FlightAware Approximate
Thu 04:02:18 PM 43.4369 -110.8467 203° Southwest 139 160 10,400  Level Salt Lake Center
Thu 04:03:00 PM 43.2314 -110.9686 216° Southwest  Level FlightAware Approximate
Thu 04:03:20 PM 43.4017 -110.8719 208° Southwest 141 162 11,000  Level Salt Lake Center
Thu 04:04:22 PM 43.3653 -110.8978 207° Southwest 144 166 11,900 919 Climbing Salt Lake Center
Thu 04:05:24 PM 43.3267 -110.9197 202° Southwest 148 170 12,900 768 Climbing Salt Lake Center
Thu 04:06:27 PM 43.2886 -110.9431 204° Southwest 149 171 13,500 768 Climbing Salt Lake Center
Thu 04:07:29 PM 43.2442 -110.9733 206° Southwest 149 171 14,500 823 Climbing Salt Lake Center
Thu 04:08:31 PM 43.2181 -111.0122 227° Southwest 156 180 15,200 726 Climbing Salt Lake Center
Thu 04:09:33 PM 43.2325 -111.0619 292° West 143 165 16,000 387 Climbing Salt Lake Center
Thu 04:10:35 PM 43.1992 -111.1086 226° Southwest 175 201 16,000  Level Salt Lake Center
Thu 04:11:37 PM 43.1514 -111.1356 202° Southwest 187 215 16,000 48 Level Salt Lake Center
Thu 04:12:39 PM 43.1022 -111.1594 200° South 187 215 16,100 -48 Climbing Salt Lake Center
Thu 04:13:41 PM 43.0519 -111.1833 199° South 194 223 15,900 -48 Descending Salt Lake Center
Thu 04:14:43 PM 42.9914 -111.2114 199° South 191 220 16,000 -48 Climbing Salt Lake Center
Thu 04:15:45 PM 42.9419 -111.2369 201° Southwest 190 219 15,800 -97 Descending Salt Lake Center
Thu 04:16:47 PM 42.8939 -111.2644 203° Southwest 188 216 15,800  Level Salt Lake Center
Thu 04:17:49 PM 42.8461 -111.2928 204° Southwest 187 215 15,800  Level Salt Lake Center
Thu 04:18:51 PM 42.7989 -111.3222 205° Southwest 186 214 15,800  Level Salt Lake Center
Thu 04:19:53 PM 42.7519 -111.3497 203° Southwest 185 213 15,800  Level Salt Lake Center
Thu 04:20:55 PM 42.7011 -111.3803 204° Southwest 184 212 15,800  Level Salt Lake Center
Thu 04:21:57 PM 42.6544 -111.4114 206° Southwest 187 215 15,800  Level Salt Lake Center
Thu 04:22:59 PM 42.5961 -111.4453 203° Southwest 188 216 15,800 48 Level Salt Lake Center
Thu 04:24:02 PM 42.5467 -111.4767 205° Southwest 195 224 15,900 48 Climbing Salt Lake Center
Thu 04:25:04 PM 42.4981 -111.5075 205° Southwest 194 223 15,900 -48 Level Salt Lake Center
Thu 04:26:06 PM 42.4469 -111.5400 205° Southwest 200 230 15,800 -48 Descending Salt Lake Center
Thu 04:27:08 PM 42.4000 -111.5636 200° South 184 212 15,800  Level Salt Lake Center
Thu 04:28:10 PM 42.3522 -111.5911 203° Southwest 186 214 15,800  Level Salt Lake Center
Thu 04:29:12 PM 42.2942 -111.6253 204° Southwest 189 217 15,800  Level Salt Lake Center
Thu 04:30:14 PM 42.2461 -111.6500 201° Southwest 184 212 15,800  Level Salt Lake Center
Thu 04:31:16 PM 42.1986 -111.6783 204° Southwest 185 213 15,800  Level Salt Lake Center
Thu 04:32:18 PM 42.1500 -111.7083 205° Southwest 190 219 15,800  Level Salt Lake Center
Thu 04:33:20 PM 42.1036 -111.7392 206° Southwest 188 216 15,800  Level Salt Lake Center
Thu 04:34:22 PM 42.0558 -111.7678 204° Southwest 187 215 15,800  Level Salt Lake Center
Thu 04:35:24 PM 41.9994 -111.8025 205° Southwest 187 215 15,800  Level Salt Lake Center
Thu 04:36:26 PM 41.9511 -111.8300 203° Southwest 187 215 15,800 48 Level Salt Lake Center
Thu 04:37:28 PM 41.9025 -111.8556 201° Southwest 189 217 15,900 48 Climbing Salt Lake Center
Thu 04:38:30 PM 41.8542 -111.8850 204° Southwest 191 220 15,900  Level Salt Lake Center
Thu 04:39:33 PM 41.8061 -111.9114 202° Southwest 188 216 15,900  Level Salt Lake Center
Thu 04:40:38 PM 41.7497 -111.9356 198° South 188 216 15,900  Level Salt Lake Center
Thu 04:41:33 PM 41.7058 -111.9650 207° Southwest 189 217 15,900 -645 Level Salt Lake Center
Thu 04:42:39 PM 41.6475 -112.0050 207° Southwest 212 244 14,600 -1,031 Descending Salt Lake Center
Thu 04:43:41 PM 41.5894 -112.0403 204° Southwest 229 264 13,700 -823 Descending Salt Lake Center
Thu 04:44:43 PM 41.5333 -112.0642 198° South 214 246 12,900 -774 Descending Salt Lake Center
Thu 04:45:45 PM 41.4739 -112.0744 187° South 214 246 12,100 -450 Descending Salt Lake Center
Thu 04:46:43 PM 41.4139 -112.0797 184° South 206 237 12,000 -97 Descending Salt Lake Center
Thu 04:47:49 PM 41.3553 -112.0881 186° South 185 213 11,900 -425 Descending Salt Lake Center
Thu 04:48:50 PM 41.2975 -112.0908 182° South 198 228 11,100 -443 Descending Salt Lake Center
Thu 04:49:51 PM 41.2431 -112.0981 186° South 201 231 11,000 -48 Descending Salt Lake Center
Thu 04:50:55 PM 41.1944 -112.1056 187° South 184 212 11,000  Level Salt Lake Center
Thu 04:51:46 PM 41.1486 -112.1217 195° South 179 206 11,000  Level Salt Lake Center
Thu 04:52:47 PM 41.1006 -112.1406 196° South 188 216 11,000  Level Salt Lake Center
Thu 04:53:48 PM 41.0528 -112.1483 187° South 170 196 11,000  Level Salt Lake Center
Thu 04:55:03 PM 40.9989 -112.1431 176° South 169 194 11,000  Level Salt Lake Center
Thu 04:55:49 PM 40.9586 -112.1406 177° South 169 194 11,000  Level Salt Lake Center
Thu 04:56:50 PM 40.9136 -112.1303 170° South 164 189 11,000  Level Salt Lake Center
Thu 04:57:45 PM 40.8742 -112.1153 164° South 161 185 11,000  Level Salt Lake Center
Thu 04:58:46 PM 40.8331 -112.1036 168° South 152 175 11,000 -201 Level Salt Lake Center
Thu 05:00:14 PM 40.7769 -112.0831 164° South 154 177 10,500 -567 Descending Salt Lake Center
Thu 05:00:53 PM 40.7389 -112.0731 169° South 180 207 9,800 -840 Descending Salt Lake Center
Thu 05:01:54 PM 40.6903 -112.0556 165° South 179 206 9,100 -672 Descending Salt Lake Center
Thu 05:02:49 PM 40.6467 -112.0308 157° South 190 219 8,500 -419 Descending Salt Lake Center
Thu 05:03:20 PM 40.6431 -112.0003 99° East 165 190 8,500 -727 Level Salt Lake Center
Thu 05:03:55 PM 40.6583 -111.9817 43° Northeast 153 176 7,700 -1,333 Descending Salt Lake Center
Thu 05:04:50 PM 40.6903 -111.9681 18° North 131 151 6,500 -1,146 Descending Salt Lake Center
Thu 05:05:24 PM 40.7083 -111.9619 14° North 128 147 6,000 -1,000 Descending Salt Lake Center
Thu 05:06:26 PM 40.7436 -111.9625 359° North 125 144 4,900 -823 Descending Salt Lake Center
Thu 05:07:28 PM 40.7753 -111.9622 360° North 117 135 4,300 -581 Descending Salt Lake Center
Thu 05:09:00 PM 40.7833 -111.9667 North  Level FlightAware Approximate

Login

Don't have an account? Register now (free) for customized features, flight alerts, and more!